createdAt,value
2022-11-27T00:01:21.442Z,11.50
2022-11-27T00:03:50.022Z,11.68
2022-11-27T00:06:20.665Z,11.27
2022-11-27T00:08:48.946Z,11.45
2022-11-27T00:11:19.952Z,11.10
2022-11-27T00:13:47.539Z,11.30
2022-11-27T00:16:15.901Z,11.40
2022-11-27T00:18:43.741Z,10.98
2022-11-27T00:21:24.180Z,11.18
2022-11-27T00:23:53.282Z,11.18
2022-11-27T00:26:21.772Z,11.60
2022-11-27T00:28:49.359Z,11.07
2022-11-27T00:31:23.269Z,10.88
2022-11-27T00:33:54.492Z,11.73
2022-11-27T00:36:23.245Z,10.90
2022-11-27T00:38:51.279Z,10.77
2022-11-27T00:41:22.264Z,10.77
2022-11-27T00:43:49.855Z,11.18
2022-11-27T00:46:24.030Z,11.32
2022-11-27T00:48:55.736Z,11.07
2022-11-27T00:51:24.602Z,11.63
2022-11-27T00:53:53.346Z,11.32
2022-11-27T00:56:26.620Z,10.15
2022-11-27T00:58:54.420Z,10.32
2022-11-27T01:01:34.684Z,10.55
2022-11-27T01:04:03.992Z,10.60
2022-11-27T01:06:32.114Z,10.45
2022-11-27T01:09:00.007Z,9.73
2022-11-27T01:11:30.371Z,10.55
2022-11-27T01:14:00.279Z,10.65
2022-11-27T01:16:29.919Z,10.75
2022-11-27T01:18:59.110Z,10.85
2022-11-27T01:21:30.316Z,10.65
2022-11-27T01:23:58.871Z,10.52
2022-11-27T01:26:26.643Z,10.38
2022-11-27T01:28:55.785Z,10.90
2022-11-27T01:31:29.698Z,10.60
2022-11-27T01:33:59.244Z,10.55
2022-11-27T01:36:27.409Z,10.35
2022-11-27T01:38:54.832Z,10.77
2022-11-27T01:41:35.095Z,10.55
2022-11-27T01:44:23.880Z,10.48
2022-11-27T01:46:55.288Z,9.70
2022-11-27T01:49:35.583Z,10.10
2022-11-27T01:52:12.018Z,10.02
2022-11-27T01:54:59.883Z,10.60
2022-11-27T01:57:39.095Z,10.23
2022-11-27T02:00:09.052Z,10.10
2022-11-27T02:02:36.746Z,9.60
2022-11-27T02:05:04.463Z,9.98
2022-11-27T02:07:32.246Z,9.75
2022-11-27T02:09:59.728Z,10.65
2022-11-27T02:12:38.854Z,9.82
2022-11-27T02:15:21.294Z,10.50
2022-11-27T02:18:07.208Z,10.05
2022-11-27T02:23:58.976Z,9.98
2022-11-27T02:27:04.640Z,10.05
2022-11-27T02:29:34.726Z,10.20
2022-11-27T02:32:10.977Z,9.98
2022-11-27T02:35:11.432Z,9.60
2022-11-27T02:37:51.036Z,10.10
2022-11-27T02:40:38.031Z,9.73
2022-11-27T02:43:20.876Z,9.98
2022-11-27T02:45:51.176Z,10.05
2022-11-27T02:48:30.854Z,9.82
2022-11-27T02:50:58.537Z,9.82
2022-11-27T02:53:30.975Z,9.52
2022-11-27T02:56:00.467Z,9.95
2022-11-27T02:58:29.780Z,10.13
2022-11-27T03:00:58.067Z,9.57
2022-11-27T03:03:32.612Z,9.57
2022-11-27T03:06:11.181Z,9.50
2022-11-27T03:08:56.829Z,9.73
2022-11-27T03:11:25.078Z,9.75
2022-11-27T03:13:58.809Z,10.13
2022-11-27T03:16:57.199Z,10.60
2022-11-27T03:19:40.208Z,9.57
2022-11-27T03:22:07.940Z,9.73
2022-11-27T03:24:36.064Z,9.57
2022-11-27T03:27:06.679Z,10.02
2022-11-27T03:29:47.787Z,10.32
2022-11-27T03:32:16.656Z,10.70
2022-11-27T03:34:44.801Z,10.82
2022-11-27T03:37:12.449Z,10.27
2022-11-27T03:39:40.300Z,10.40
2022-11-27T03:42:23.451Z,10.90
2022-11-27T03:45:04.127Z,10.48
2022-11-27T03:47:40.561Z,10.52
2022-11-27T03:50:21.703Z,10.13
2022-11-27T03:53:10.791Z,10.82
2022-11-27T03:55:48.511Z,10.93
2022-11-27T03:58:32.756Z,10.13
2022-11-27T04:01:02.813Z,10.32
2022-11-27T04:03:31.243Z,10.05
2022-11-27T04:05:58.536Z,10.63
2022-11-27T04:08:26.361Z,10.82
2022-11-27T04:10:53.651Z,10.93
2022-11-27T04:13:21.481Z,10.32
2022-11-27T04:15:49.030Z,10.65
2022-11-27T04:18:16.641Z,10.27
2022-11-27T04:20:44.123Z,10.05
2022-11-27T04:23:11.743Z,10.30
2022-11-27T04:25:39.008Z,11.07
2022-11-27T04:28:06.736Z,10.38
2022-11-27T04:30:34.307Z,10.82
2022-11-27T04:33:02.984Z,10.45
2022-11-27T04:35:30.254Z,11.07
2022-11-27T04:37:58.150Z,11.00
2022-11-27T04:40:25.403Z,10.63
2022-11-27T04:42:53.044Z,10.65
2022-11-27T04:45:20.478Z,10.73
2022-11-27T04:47:48.128Z,11.10
2022-11-27T04:50:15.449Z,11.35
2022-11-27T04:52:43.115Z,10.25
2022-11-27T04:55:10.472Z,10.43
2022-11-27T04:57:38.704Z,10.93
2022-11-27T05:00:07.429Z,10.25
2022-11-27T05:02:35.191Z,10.55
2022-11-27T05:05:02.907Z,10.75
2022-11-27T05:07:31.111Z,10.65
2022-11-27T05:09:58.449Z,10.30
2022-11-27T05:12:26.727Z,10.35
2022-11-27T05:14:54.007Z,10.13
2022-11-27T05:17:21.645Z,10.00
2022-11-27T05:19:48.913Z,9.88
2022-11-27T05:22:16.497Z,10.88
2022-11-27T05:24:43.710Z,10.88
2022-11-27T05:27:11.302Z,11.32
2022-11-27T05:29:40.231Z,10.20
2022-11-27T05:32:07.894Z,10.30
2022-11-27T05:34:35.146Z,10.25
2022-11-27T05:37:02.763Z,10.70
2022-11-27T05:39:30.087Z,11.45
2022-11-27T05:41:57.674Z,11.27
2022-11-27T05:44:26.819Z,10.35
2022-11-27T05:46:54.522Z,10.23
2022-11-27T05:49:21.865Z,10.55
2022-11-27T05:51:51.650Z,10.52
2022-11-27T05:54:19.507Z,11.00
2022-11-27T05:56:47.206Z,11.38
2022-11-27T05:59:14.977Z,10.27
2022-11-27T06:01:43.116Z,10.00
2022-11-27T06:04:10.539Z,10.25
2022-11-27T06:06:38.195Z,10.48
2022-11-27T06:09:10.892Z,11.30
2022-11-27T06:11:41.605Z,10.52
2022-11-27T06:14:09.547Z,10.45
2022-11-27T06:16:37.425Z,10.40
2022-11-27T06:19:04.756Z,10.27
2022-11-27T06:21:32.265Z,10.27
2022-11-27T06:24:00.244Z,11.07
2022-11-27T06:26:30.234Z,10.73
2022-11-27T06:28:58.903Z,11.32
2022-11-27T06:31:29.990Z,10.25
2022-11-27T06:33:58.732Z,10.57
2022-11-27T06:36:33.057Z,10.05
2022-11-27T06:39:00.893Z,10.73
2022-11-27T06:41:29.118Z,11.02
2022-11-27T06:43:58.515Z,10.93
2022-11-27T06:46:27.432Z,10.32
2022-11-27T06:48:55.116Z,10.18
2022-11-27T06:51:25.333Z,11.38
2022-11-27T06:53:53.843Z,10.07
2022-11-27T06:56:26.721Z,11.00
2022-11-27T06:58:56.508Z,10.23
2022-11-27T07:01:26.226Z,10.13
2022-11-27T07:03:54.137Z,10.60
2022-11-27T07:06:24.664Z,10.00
2022-11-27T07:08:53.027Z,10.55
2022-11-27T07:11:23.840Z,9.90
2022-11-27T07:13:51.890Z,10.93
2022-11-27T07:16:19.648Z,10.73
2022-11-27T07:18:49.444Z,10.20
2022-11-27T07:21:17.643Z,10.35
2022-11-27T07:23:45.576Z,11.50
2022-11-27T07:26:15.843Z,10.40
2022-11-27T07:28:43.865Z,10.52
2022-11-27T07:31:14.558Z,10.50
2022-11-27T07:33:41.859Z,10.13
2022-11-27T07:36:22.027Z,10.18
2022-11-27T07:38:49.544Z,9.73
2022-11-27T07:41:17.676Z,9.95
2022-11-27T07:43:45.676Z,10.18
2022-11-27T07:46:17.037Z,10.25
2022-11-27T07:48:44.411Z,10.60
2022-11-27T07:51:15.160Z,10.00
2022-11-27T07:53:42.882Z,10.73
2022-11-27T07:56:13.256Z,10.27
2022-11-27T07:58:40.618Z,10.55
2022-11-27T08:01:10.868Z,10.52
2022-11-27T08:03:38.227Z,10.45
2022-11-27T08:06:13.997Z,10.82
2022-11-27T08:08:41.289Z,10.35
2022-11-27T08:11:17.940Z,10.60
2022-11-27T08:13:45.180Z,10.60
2022-11-27T08:16:12.818Z,10.57
2022-11-27T08:18:40.113Z,10.38
2022-11-27T08:21:07.702Z,10.52
2022-11-27T08:23:35.390Z,10.25
2022-11-27T08:26:05.799Z,10.23
2022-11-27T08:28:33.100Z,10.63
2022-11-27T08:31:03.143Z,10.02
2022-11-27T08:33:32.633Z,10.52
2022-11-27T08:36:00.503Z,10.13
2022-11-27T08:38:27.848Z,10.32
2022-11-27T08:41:02.355Z,10.32
2022-11-27T08:43:30.388Z,10.70
2022-11-27T08:45:58.732Z,9.85
2022-11-27T08:48:26.139Z,10.60
2022-11-27T08:50:53.747Z,10.43
2022-11-27T08:53:21.206Z,10.25
2022-11-27T08:55:48.785Z,10.02
2022-11-27T08:58:16.682Z,10.13
2022-11-27T09:00:44.276Z,10.57
2022-11-27T09:03:12.458Z,9.63
2022-11-27T09:05:46.227Z,10.18
2022-11-27T09:08:20.021Z,10.57
2022-11-27T09:10:47.577Z,9.50
2022-11-27T09:13:15.641Z,10.13
2022-11-27T09:15:43.187Z,10.13
2022-11-27T09:18:10.796Z,10.25
2022-11-27T09:20:38.284Z,10.02
2022-11-27T09:23:08.904Z,10.68
2022-11-27T09:25:39.607Z,9.77
2022-11-27T09:28:07.682Z,10.27
2022-11-27T09:30:35.195Z,10.15
2022-11-27T09:33:02.488Z,9.98
2022-11-27T09:35:30.126Z,10.32
2022-11-27T09:37:57.443Z,9.50
2022-11-27T09:40:25.219Z,10.70
2022-11-27T09:43:06.113Z,10.60
2022-11-27T09:45:37.062Z,10.07
2022-11-27T09:48:14.575Z,10.05
2022-11-27T09:50:50.306Z,10.18
2022-11-27T09:53:28.114Z,9.75
2022-11-27T09:55:59.079Z,9.63
2022-11-27T09:58:35.139Z,9.85
2022-11-27T10:01:12.795Z,10.30
2022-11-27T10:03:42.449Z,10.50
2022-11-27T10:06:28.533Z,9.75
2022-11-27T10:09:12.606Z,9.60
2022-11-27T10:12:00.632Z,9.85
2022-11-27T10:14:37.000Z,9.30
2022-11-27T10:17:20.370Z,9.50
2022-11-27T10:20:00.592Z,9.60
2022-11-27T10:22:45.819Z,9.63
2022-11-27T10:25:15.701Z,9.05
2022-11-27T10:27:55.371Z,9.57
2022-11-27T10:30:22.719Z,9.30
2022-11-27T10:32:56.318Z,9.23
2022-11-27T10:35:26.146Z,8.95
2022-11-27T10:38:07.474Z,9.25
2022-11-27T10:40:43.000Z,9.23
2022-11-27T10:43:22.632Z,8.90
2022-11-27T10:45:57.634Z,9.98
2022-11-27T10:48:27.587Z,10.00
2022-11-27T10:50:55.294Z,10.35
2022-11-27T10:53:34.696Z,10.38
2022-11-27T10:56:04.913Z,9.68
2022-11-27T10:58:39.919Z,9.35
2022-11-27T11:01:15.515Z,9.60
2022-11-27T11:03:43.577Z,10.00
2022-11-27T11:06:30.554Z,9.05
2022-11-27T11:09:23.404Z,9.35
2022-11-27T11:11:51.895Z,11.98
2022-11-27T11:14:25.313Z,12.65
2022-11-27T11:16:54.849Z,12.38
2022-11-27T11:19:24.248Z,12.50
2022-11-27T11:21:52.433Z,13.02
2022-11-27T11:24:31.428Z,12.65
2022-11-27T11:27:12.324Z,11.68
2022-11-27T11:29:45.950Z,11.90
2022-11-27T11:32:16.358Z,12.55
2022-11-27T11:34:47.393Z,12.02
2022-11-27T11:37:26.199Z,11.93
2022-11-27T11:40:22.084Z,12.75
2022-11-27T11:42:54.453Z,11.55
2022-11-27T11:45:22.547Z,11.15
2022-11-27T11:47:58.105Z,12.32
2022-11-27T11:50:31.706Z,11.65
2022-11-27T11:53:05.376Z,10.90
2022-11-27T11:55:55.081Z,11.25
2022-11-27T11:58:42.305Z,11.05
2022-11-27T12:01:27.455Z,11.45
2022-11-27T12:04:32.669Z,10.95
2022-11-27T12:07:39.096Z,10.43
2022-11-27T12:13:04.599Z,10.88
2022-11-27T12:15:42.091Z,11.45
2022-11-27T12:18:25.531Z,10.30
2022-11-27T12:21:11.448Z,10.93
2022-11-27T12:24:14.475Z,11.18
2022-11-27T12:27:01.090Z,10.40
2022-11-27T12:29:40.874Z,10.38
2022-11-27T12:32:26.320Z,11.82
2022-11-27T12:35:27.505Z,10.43
2022-11-27T12:38:12.928Z,10.82
2022-11-27T12:40:40.378Z,10.40
2022-11-27T12:43:10.651Z,10.88
2022-11-27T12:45:52.020Z,10.68
2022-11-27T12:48:32.195Z,10.52
2022-11-27T12:51:22.120Z,10.55
2022-11-27T12:54:03.023Z,10.85
2022-11-27T12:56:42.190Z,10.20
2022-11-27T12:59:19.695Z,10.48
2022-11-27T13:02:18.648Z,10.25
2022-11-27T13:04:57.744Z,9.68
2022-11-27T13:07:40.030Z,9.00
2022-11-27T13:10:21.582Z,9.98
2022-11-27T13:13:09.571Z,9.57
2022-11-27T13:15:56.086Z,9.85
2022-11-27T13:18:33.944Z,9.82
2022-11-27T13:21:05.285Z,9.32
2022-11-27T13:23:33.593Z,10.68
2022-11-27T13:26:27.567Z,9.48
2022-11-27T13:29:24.588Z,8.60
2022-11-27T13:31:56.647Z,8.93
2022-11-27T13:34:27.596Z,8.95
2022-11-27T13:36:59.139Z,8.63
2022-11-27T13:39:34.237Z,8.60
2022-11-27T13:42:18.306Z,8.73
2022-11-27T13:44:55.961Z,8.40
2022-11-27T13:47:28.034Z,8.50
2022-11-27T13:50:18.753Z,8.70
2022-11-27T13:53:07.325Z,8.57
2022-11-27T13:55:37.940Z,8.45
2022-11-27T13:58:07.230Z,8.13
2022-11-27T14:00:38.580Z,8.52
2022-11-27T14:03:10.587Z,7.63
2022-11-27T14:05:47.469Z,7.72
2022-11-27T14:08:19.475Z,7.20
2022-11-27T14:10:52.042Z,7.35
2022-11-27T14:13:24.880Z,7.00
2022-11-27T14:16:02.005Z,7.47
2022-11-27T14:18:30.656Z,6.70
2022-11-27T14:21:02.457Z,7.43
2022-11-27T14:23:49.206Z,7.22
2022-11-27T14:26:16.879Z,6.80
2022-11-27T14:28:48.768Z,6.70
2022-11-27T14:31:35.783Z,6.50
2022-11-27T14:34:23.097Z,6.63
2022-11-27T14:36:54.394Z,6.85
2022-11-27T14:39:36.701Z,6.90
2022-11-27T14:42:18.766Z,6.85
2022-11-27T14:44:46.071Z,6.68
2022-11-27T14:47:20.295Z,6.85
2022-11-27T14:49:56.165Z,7.15
2022-11-27T14:52:24.285Z,6.75
2022-11-27T14:54:52.547Z,6.93
2022-11-27T14:57:26.694Z,6.85
2022-11-27T15:00:24.140Z,6.67
2022-11-27T15:02:51.950Z,6.60
2022-11-27T15:05:26.997Z,7.13
2022-11-27T15:07:57.879Z,7.30
2022-11-27T15:10:40.673Z,6.50
2022-11-27T15:13:21.295Z,7.32
2022-11-27T15:15:56.949Z,7.57
2022-11-27T15:18:25.768Z,7.30
2022-11-27T15:20:55.056Z,7.30
2022-11-27T15:23:27.866Z,7.03
2022-11-27T15:26:16.770Z,7.22
2022-11-27T15:28:57.111Z,8.05
2022-11-27T15:31:27.561Z,7.55
2022-11-27T15:33:56.371Z,7.30
2022-11-27T15:36:24.057Z,7.60
2022-11-27T15:38:51.638Z,7.72
2022-11-27T15:41:20.561Z,7.03
2022-11-27T15:43:48.384Z,7.68
2022-11-27T15:46:22.445Z,8.10
2022-11-27T15:48:50.200Z,8.10
2022-11-27T15:51:17.635Z,8.40
2022-11-27T15:53:45.191Z,8.55
2022-11-27T15:56:12.508Z,9.13
2022-11-27T15:58:41.587Z,8.73
2022-11-27T16:01:10.250Z,8.38
2022-11-27T16:03:39.799Z,9.45
2022-11-27T16:06:08.869Z,8.20
2022-11-27T16:08:36.600Z,8.13
2022-11-27T16:11:07.681Z,8.25
2022-11-27T16:13:35.249Z,7.50
2022-11-27T16:16:04.304Z,8.50
2022-11-27T16:18:32.961Z,8.15
2022-11-27T16:21:10.154Z,8.48
2022-11-27T16:23:39.272Z,8.20
2022-11-27T16:26:08.054Z,7.50
2022-11-27T16:28:35.729Z,8.15
2022-11-27T16:31:07.702Z,7.90
2022-11-27T16:33:35.379Z,7.80
2022-11-27T16:36:12.852Z,8.00
2022-11-27T16:38:41.884Z,8.35
2022-11-27T16:41:12.302Z,7.78
2022-11-27T16:43:42.621Z,7.90
2022-11-27T16:46:15.455Z,7.95
2022-11-27T16:48:44.236Z,9.13
2022-11-27T16:51:15.952Z,8.13
2022-11-27T16:53:45.835Z,7.70
2022-11-27T16:56:15.322Z,8.20
2022-11-27T16:58:44.295Z,8.15
2022-11-27T17:01:15.970Z,7.75
2022-11-27T17:03:43.916Z,7.38
2022-11-27T17:06:20.673Z,8.05
2022-11-27T17:08:48.757Z,7.88
2022-11-27T17:11:20.191Z,7.68
2022-11-27T17:13:48.652Z,7.40
2022-11-27T17:16:16.386Z,7.55
2022-11-27T17:18:47.848Z,7.38
2022-11-27T17:21:18.530Z,7.68
2022-11-27T17:23:46.914Z,7.25
2022-11-27T17:26:16.507Z,7.13
2022-11-27T17:28:44.572Z,7.70
2022-11-27T17:31:14.912Z,8.15
2022-11-27T17:33:43.038Z,7.35
2022-11-27T17:36:10.928Z,7.53
2022-11-27T17:38:38.664Z,7.68
2022-11-27T17:41:11.401Z,8.07
2022-11-27T17:43:39.806Z,7.60
2022-11-27T17:46:08.785Z,7.70
2022-11-27T17:48:38.081Z,8.00
2022-11-27T17:51:06.487Z,7.40
2022-11-27T17:53:34.616Z,8.35
2022-11-27T17:56:12.613Z,8.15
2022-11-27T17:58:40.603Z,7.70
2022-11-27T18:01:16.437Z,8.02
2022-11-27T18:03:47.204Z,7.95
2022-11-27T18:06:17.814Z,8.55
2022-11-27T18:08:46.880Z,8.02
2022-11-27T18:11:19.622Z,7.85
2022-11-27T18:13:48.599Z,8.38
2022-11-27T18:16:20.408Z,8.20
2022-11-27T18:18:49.349Z,7.75
2022-11-27T18:21:19.518Z,8.32
2022-11-27T18:24:21.435Z,8.50
2022-11-27T18:27:07.684Z,7.72
2022-11-27T18:29:24.967Z,7.72
2022-11-27T18:31:53.536Z,7.75
2022-11-27T18:34:21.214Z,8.40
2022-11-27T18:36:48.521Z,7.97
2022-11-27T18:39:16.440Z,7.43
2022-11-27T18:41:44.100Z,8.15
2022-11-27T18:44:12.024Z,8.05
2022-11-27T18:46:39.439Z,8.35
2022-11-27T18:49:07.070Z,8.32
2022-11-27T18:51:34.490Z,7.90
2022-11-27T18:54:02.126Z,7.75
2022-11-27T18:56:31.185Z,9.00
2022-11-27T18:59:06.398Z,7.93
2022-11-27T19:01:41.470Z,7.70
2022-11-27T19:04:11.450Z,8.30
2022-11-27T19:06:42.087Z,8.13
2022-11-27T19:09:12.186Z,8.82
2022-11-27T19:11:40.447Z,8.60
2022-11-27T19:14:09.077Z,8.77
2022-11-27T19:16:42.045Z,8.80
2022-11-27T19:19:38.966Z,8.20
2022-11-27T19:21:57.552Z,8.70
2022-11-27T19:24:25.154Z,7.97
2022-11-27T19:26:52.399Z,8.23
2022-11-27T19:29:19.939Z,7.95
2022-11-27T19:31:50.285Z,8.75
2022-11-27T19:34:18.036Z,8.52
2022-11-27T19:36:45.358Z,8.95
2022-11-27T19:39:15.130Z,9.25
2022-11-27T19:41:43.354Z,9.32
2022-11-27T19:44:12.716Z,9.25
2022-11-27T19:46:40.950Z,9.35
2022-11-27T19:49:16.738Z,10.05
2022-11-27T19:51:44.785Z,10.60
2022-11-27T19:54:13.649Z,10.50
2022-11-27T19:56:42.640Z,11.07
2022-11-27T19:59:12.251Z,10.88
2022-11-27T20:01:40.684Z,11.13
2022-11-27T20:04:11.190Z,10.95
2022-11-27T20:06:39.247Z,11.00
2022-11-27T20:09:07.222Z,11.38
2022-11-27T20:11:38.058Z,10.80
2022-11-27T20:14:06.770Z,10.90
2022-11-27T20:16:35.705Z,11.50
2022-11-27T20:19:05.968Z,11.90
2022-11-27T20:21:34.104Z,10.70
2022-11-27T20:24:02.098Z,12.23
2022-11-27T20:26:30.640Z,11.63
2022-11-27T20:28:59.112Z,11.30
2022-11-27T20:31:30.148Z,11.80
2022-11-27T20:34:00.888Z,11.85
2022-11-27T20:36:30.068Z,11.43
2022-11-27T20:38:59.563Z,13.00
2022-11-27T20:41:27.657Z,12.35
2022-11-27T20:44:00.351Z,12.35
2022-11-27T20:46:28.489Z,12.25
2022-11-27T20:48:56.998Z,12.48
2022-11-27T20:51:28.735Z,12.35
2022-11-27T20:53:59.043Z,13.15
2022-11-27T20:56:26.525Z,12.70
2022-11-27T20:58:54.920Z,13.20
2022-11-27T21:01:26.461Z,13.45
2022-11-27T21:03:55.866Z,12.80
2022-11-27T21:06:26.452Z,13.60
2022-11-27T21:08:54.659Z,13.30
2022-11-27T21:11:27.762Z,13.10
2022-11-27T21:14:01.749Z,13.80
2022-11-27T21:16:31.483Z,13.63
2022-11-27T21:19:05.235Z,14.10
2022-11-27T21:21:33.702Z,14.40
2022-11-27T21:24:01.447Z,13.90
2022-11-27T21:26:29.119Z,14.07
2022-11-27T21:28:56.960Z,13.77
2022-11-27T21:31:26.687Z,15.23
2022-11-27T21:33:56.692Z,14.32
2022-11-27T21:36:28.180Z,14.20
2022-11-27T21:38:59.997Z,14.70
2022-11-27T21:41:28.492Z,15.30
2022-11-27T21:43:58.426Z,14.52
2022-11-27T21:46:26.924Z,14.40
2022-11-27T21:48:57.526Z,15.05
2022-11-27T21:51:26.299Z,14.15
2022-11-27T21:53:57.799Z,14.77
2022-11-27T21:56:27.876Z,15.40
2022-11-27T21:58:55.685Z,15.50
2022-11-27T22:01:24.980Z,14.15
2022-11-27T22:03:56.836Z,14.95
2022-11-27T22:06:27.584Z,14.32
2022-11-27T22:08:58.084Z,15.60
2022-11-27T22:11:28.679Z,15.30
2022-11-27T22:14:05.882Z,14.82
2022-11-27T22:16:42.760Z,14.45
2022-11-27T22:19:12.247Z,15.48
2022-11-27T22:21:39.553Z,16.40
2022-11-27T22:24:12.205Z,15.40
2022-11-27T22:26:43.988Z,15.90
2022-11-27T22:29:12.386Z,15.48
2022-11-27T22:31:40.641Z,14.63
2022-11-27T22:34:08.217Z,14.68
2022-11-27T22:36:35.541Z,14.88
2022-11-27T22:39:06.476Z,15.50
2022-11-27T22:41:36.520Z,15.82
2022-11-27T22:44:08.882Z,15.38
2022-11-27T22:46:36.654Z,15.60
2022-11-27T22:49:06.301Z,15.30
2022-11-27T22:51:35.727Z,16.23
2022-11-27T22:54:06.027Z,15.82
2022-11-27T22:56:34.050Z,16.48
2022-11-27T22:59:30.491Z,16.63
2022-11-27T23:01:49.520Z,15.05
2022-11-27T23:04:17.135Z,16.42
2022-11-27T23:06:47.894Z,15.88
2022-11-27T23:09:17.772Z,15.30
2022-11-27T23:11:45.944Z,15.85
2022-11-27T23:14:13.498Z,15.55
2022-11-27T23:16:40.819Z,15.65
2022-11-27T23:19:09.110Z,15.77
2022-11-27T23:21:37.693Z,15.38
2022-11-27T23:24:07.301Z,16.15
2022-11-27T23:26:35.004Z,15.48
2022-11-27T23:29:02.742Z,15.95
2022-11-27T23:31:36.086Z,15.18
2022-11-27T23:34:07.373Z,14.82
2022-11-27T23:36:35.540Z,15.93
2022-11-27T23:39:05.463Z,15.98
2022-11-27T23:41:33.025Z,16.02
2022-11-27T23:44:01.588Z,15.95
2022-11-27T23:46:30.118Z,15.68
2022-11-27T23:48:59.817Z,15.18
2022-11-27T23:51:30.193Z,15.77
2022-11-27T23:53:58.645Z,15.73
2022-11-27T23:56:31.342Z,15.77
2022-11-27T23:59:00.021Z,15.25
